Time;durP1;ratioP1;P1;durP2;ratioP2;P2;SDS_P1;SDS_P2;PMS_P1;PMS_P2;Temp;Humidity;BMP_temperature;BMP_pressure;BME280_temperature;BME280_humidity;BME280_pressure;Samples;Min_cycle;Max_cycle;Signal;HPM_P1;HPM_P2
2022/06/01 00:01:36;;;;;;;13.00;10.73;;;11.50;99.90;;;;;;5093028;28;20020;-73
2022/06/01 00:04:03;;;;;;;13.35;10.18;;;11.60;99.90;;;;;;5091717;28;20031;-73
2022/06/01 00:06:29;;;;;;;18.67;10.45;;;11.50;99.90;;;;;;5093324;28;20385;-74
2022/06/01 00:08:54;;;;;;;15.88;11.48;;;11.70;99.90;;;;;;5093237;28;20038;-73
2022/06/01 00:11:20;;;;;;;13.38;10.52;;;11.80;99.90;;;;;;5082071;28;20473;-74
2022/06/01 00:13:47;;;;;;;17.40;10.77;;;11.70;99.90;;;;;;5087040;28;20031;-74
2022/06/01 00:16:13;;;;;;;14.95;9.80;;;11.40;99.90;;;;;;5093229;28;20024;-74
2022/06/01 00:18:38;;;;;;;15.70;10.45;;;11.30;99.90;;;;;;5092949;28;20484;-73
2022/06/01 00:21:07;;;;;;;15.02;10.18;;;11.30;99.90;;;;;;5093006;28;20038;-73
2022/06/01 00:23:32;;;;;;;13.20;10.55;;;11.40;99.90;;;;;;5092989;28;20028;-74
2022/06/01 00:25:58;;;;;;;13.07;9.15;;;11.30;99.90;;;;;;5092856;28;20152;-73
2022/06/01 00:28:25;;;;;;;12.48;9.50;;;11.20;99.90;;;;;;5092375;28;20024;-73
2022/06/01 00:30:50;;;;;;;12.82;10.13;;;10.90;99.90;;;;;;5092867;28;20035;-73
2022/06/01 00:33:16;;;;;;;13.55;9.55;;;10.90;99.90;;;;;;5091683;28;20020;-73
2022/06/01 00:35:42;;;;;;;13.23;9.07;;;10.80;99.90;;;;;;5092820;28;20027;-73
2022/06/01 00:38:08;;;;;;;18.05;9.93;;;10.70;99.90;;;;;;5091883;28;20029;-73
2022/06/01 00:40:34;;;;;;;12.57;9.18;;;10.80;99.90;;;;;;5091663;28;20031;-74
2022/06/01 00:43:16;;;;;;;12.80;8.77;;;10.90;99.90;;;;;;5092163;28;20136;-73
2022/06/01 00:45:42;;;;;;;13.23;8.50;;;11.20;99.90;;;;;;5092901;28;20044;-73
2022/06/01 00:48:08;;;;;;;11.43;8.02;;;11.00;99.90;;;;;;5092530;28;20069;-74
2022/06/01 00:50:39;;;;;;;11.77;8.20;;;11.10;99.90;;;;;;5085898;28;20035;-74
2022/06/01 00:53:09;;;;;;;13.48;8.30;;;11.10;99.90;;;;;;5092741;28;20016;-74
2022/06/01 00:55:40;;;;;;;10.95;8.13;;;11.10;99.90;;;;;;5092709;28;20117;-73
2022/06/01 00:58:25;;;;;;;15.18;8.52;;;11.00;99.90;;;;;;5092131;28;20020;-73
2022/06/01 01:00:53;;;;;;;11.15;7.10;;;10.90;99.90;;;;;;5092614;28;20365;-74
2022/06/01 01:03:21;;;;;;;12.07;7.28;;;10.90;99.90;;;;;;5092173;28;20362;-74
2022/06/01 01:06:01;;;;;;;12.57;7.43;;;11.00;99.90;;;;;;5092394;28;20040;-74
2022/06/01 01:08:27;;;;;;;13.63;7.75;;;11.00;99.90;;;;;;5092243;28;20473;-74
2022/06/01 01:10:53;;;;;;;20.30;6.93;;;10.90;99.90;;;;;;5086764;28;20023;-74
2022/06/01 01:13:18;;;;;;;10.45;7.28;;;11.20;99.90;;;;;;5082841;28;20036;-74
2022/06/01 01:15:55;;;;;;;8.77;6.13;;;11.20;99.90;;;;;;5092292;28;20035;-74
2022/06/01 01:18:30;;;;;;;12.90;7.03;;;10.90;99.90;;;;;;5092446;28;20032;-74
2022/06/01 01:21:19;;;;;;;9.75;6.15;;;11.00;99.90;;;;;;5091145;28;20028;-74
2022/06/01 01:24:09;;;;;;;9.35;5.93;;;11.00;99.90;;;;;;5092452;28;20170;-74
2022/06/01 01:26:36;;;;;;;11.90;5.78;;;11.10;99.90;;;;;;5079886;28;20032;-74
2022/06/01 01:29:09;;;;;;;9.52;5.70;;;10.80;99.90;;;;;;5091940;28;20045;-74
2022/06/01 01:31:36;;;;;;;10.57;6.18;;;10.90;99.90;;;;;;5092451;28;20035;-74
2022/06/01 01:34:02;;;;;;;22.85;6.05;;;10.80;99.90;;;;;;5090949;28;20127;-74
2022/06/01 01:36:41;;;;;;;11.40;6.63;;;10.80;99.90;;;;;;5092281;28;20089;-74
2022/06/01 01:39:12;;;;;;;11.85;5.38;;;10.80;99.90;;;;;;5091980;28;20046;-73
2022/06/01 01:41:42;;;;;;;12.27;6.93;;;11.00;99.90;;;;;;5092085;28;20101;-74
2022/06/01 01:44:30;;;;;;;17.80;6.22;;;10.90;99.90;;;;;;5092215;28;20032;-74
2022/06/01 01:46:58;;;;;;;14.05;6.20;;;11.00;99.90;;;;;;5081307;28;20157;-74
2022/06/01 01:49:30;;;;;;;12.63;6.63;;;11.10;99.90;;;;;;5085892;28;20473;-74
2022/06/01 01:51:59;;;;;;;8.63;6.28;;;11.10;99.90;;;;;;5095982;28;20104;-74
2022/06/01 01:54:46;;;;;;;11.05;5.85;;;10.90;99.90;;;;;;5095565;28;20020;-74
2022/06/01 01:57:41;;;;;;;13.43;6.20;;;10.80;99.90;;;;;;5095694;28;20034;-74
2022/06/01 02:00:29;;;;;;;12.00;6.22;;;10.90;99.90;;;;;;5095411;28;20107;-74
2022/06/01 02:03:10;;;;;;;14.00;5.93;;;11.00;99.90;;;;;;5094165;28;20036;-74
2022/06/01 02:08:37;;;;;;;9.73;6.03;;;10.80;99.90;;;;;;5095302;28;20043;-74
2022/06/01 02:13:51;;;;;;;19.00;5.93;;;10.60;99.90;;;;;;5084196;28;20103;-74
2022/06/01 02:16:18;;;;;;;13.27;6.75;;;10.60;99.90;;;;;;5095370;28;20115;-74
2022/06/01 02:18:51;;;;;;;18.17;6.10;;;10.80;99.90;;;;;;5094976;28;20024;-74
2022/06/01 02:21:20;;;;;;;11.88;6.07;;;10.60;99.90;;;;;;5093541;28;20472;-74
2022/06/01 02:23:48;;;;;;;8.52;6.05;;;10.70;99.90;;;;;;5081301;28;20063;-74
2022/06/01 02:26:14;;;;;;;13.90;6.50;;;10.70;99.90;;;;;;5078202;28;20024;-74
2022/06/01 02:28:43;;;;;;;16.48;6.30;;;10.70;99.90;;;;;;5088308;28;20468;-74
2022/06/01 02:31:10;;;;;;;12.45;5.93;;;10.60;99.90;;;;;;5082336;28;20366;-74
2022/06/01 02:33:38;;;;;;;11.00;5.90;;;10.70;99.90;;;;;;5092391;28;20077;-74
2022/06/01 02:36:07;;;;;;;14.38;7.10;;;10.60;99.90;;;;;;5095200;28;20036;-74
2022/06/01 02:38:44;;;;;;;8.48;5.95;;;10.40;99.90;;;;;;5091565;28;20028;-74
2022/06/01 02:42:25;;;;;;;16.35;5.50;;;10.20;99.90;;;;;;5085289;28;20028;-74
2022/06/01 02:43:58;;;;;;;11.45;5.65;;;10.30;99.90;;;;;;5094637;28;20122;-74
2022/06/01 02:46:24;;;;;;;8.05;5.70;;;10.30;99.90;;;;;;5094586;28;20492;-74
2022/06/01 02:48:50;;;;;;;8.88;5.32;;;10.30;99.90;;;;;;5091801;28;20520;-74
2022/06/01 02:51:18;;;;;;;11.85;5.03;;;10.20;99.90;;;;;;5084248;28;20498;-74
2022/06/01 02:53:45;;;;;;;14.80;6.05;;;10.20;99.90;;;;;;5094403;28;20453;-73
2022/06/01 02:56:12;;;;;;;12.80;5.15;;;10.10;99.90;;;;;;5086761;28;20029;-73
2022/06/01 02:58:38;;;;;;;8.13;5.25;;;10.10;99.90;;;;;;5088353;28;20024;-73
2022/06/01 03:01:04;;;;;;;10.52;5.25;;;10.10;99.90;;;;;;5093365;28;20178;-74
2022/06/01 03:03:30;;;;;;;14.23;5.57;;;10.30;99.90;;;;;;5094336;28;20118;-74
2022/06/01 03:05:56;;;;;;;9.68;5.30;;;10.20;99.90;;;;;;5094085;28;20036;-73
2022/06/01 03:08:22;;;;;;;9.15;4.30;;;10.20;99.90;;;;;;5094106;28;20480;-73
2022/06/01 03:10:48;;;;;;;16.75;5.03;;;10.40;99.90;;;;;;5094271;28;20020;-73
2022/06/01 03:13:15;;;;;;;10.95;5.43;;;10.40;99.90;;;;;;5093055;28;20384;-73
2022/06/01 03:15:41;;;;;;;11.63;5.25;;;10.40;99.90;;;;;;5094019;28;20131;-73
2022/06/01 03:18:07;;;;;;;14.25;4.70;;;10.50;99.90;;;;;;5094374;28;20103;-72
2022/06/01 03:20:34;;;;;;;10.25;5.10;;;10.60;99.90;;;;;;5094162;28;20056;-73
2022/06/01 03:23:00;;;;;;;21.48;5.22;;;10.40;99.90;;;;;;5092489;28;20035;-72
2022/06/01 03:25:28;;;;;;;10.80;4.80;;;10.50;99.90;;;;;;5093975;28;20119;-73
2022/06/01 03:27:57;;;;;;;13.88;5.35;;;10.30;99.90;;;;;;5093955;28;20081;-74
2022/06/01 03:30:23;;;;;;;11.73;5.43;;;10.20;99.90;;;;;;5085583;28;20037;-73
2022/06/01 03:32:50;;;;;;;10.18;4.55;;;10.20;99.90;;;;;;5088057;28;20024;-74
2022/06/01 03:35:20;;;;;;;10.45;5.50;;;10.40;99.90;;;;;;5093867;28;20036;-74
2022/06/01 03:37:46;;;;;;;20.90;5.82;;;10.50;99.90;;;;;;5075307;28;20085;-74
2022/06/01 03:40:13;;;;;;;10.48;5.55;;;10.50;99.90;;;;;;5093734;28;20110;-74
2022/06/01 03:42:38;;;;;;;11.32;5.38;;;10.60;99.90;;;;;;5093567;28;20533;-74
2022/06/01 03:47:50;;;;;;;14.02;5.68;;;10.30;99.90;;;;;;5093532;28;20036;-74
2022/06/01 03:50:17;;;;;;;18.75;6.10;;;10.10;99.90;;;;;;5082644;28;20057;-74
2022/06/01 03:52:45;;;;;;;9.85;5.72;;;10.10;99.90;;;;;;5093223;28;20050;-74
2022/06/01 03:55:14;;;;;;;13.57;6.03;;;10.10;99.90;;;;;;5092320;28;20044;-74
2022/06/01 03:57:41;;;;;;;13.27;5.97;;;10.20;99.90;;;;;;5092170;28;20044;-74
2022/06/01 04:00:10;;;;;;;12.70;6.28;;;10.40;99.90;;;;;;5093311;28;20035;-74
2022/06/01 04:02:39;;;;;;;12.77;6.28;;;10.30;99.90;;;;;;5093448;28;20043;-74
2022/06/01 04:05:05;;;;;;;11.23;6.10;;;10.10;99.90;;;;;;5092770;28;20051;-74
2022/06/01 04:07:31;;;;;;;13.35;6.40;;;10.00;99.90;;;;;;5093197;28;20062;-74
2022/06/01 04:09:57;;;;;;;10.27;6.55;;;9.90;99.90;;;;;;5093278;28;20020;-74
2022/06/01 04:12:23;;;;;;;11.63;5.97;;;9.90;99.90;;;;;;5091527;28;20032;-74
2022/06/01 04:14:48;;;;;;;12.30;6.28;;;9.90;99.90;;;;;;5093235;28;20040;-74
2022/06/01 04:17:14;;;;;;;14.57;6.70;;;10.10;99.90;;;;;;5092805;28;20028;-74
2022/06/01 04:19:40;;;;;;;14.48;5.97;;;10.00;99.90;;;;;;5092746;28;20024;-74
2022/06/01 04:22:07;;;;;;;16.10;6.65;;;9.90;99.90;;;;;;5093088;28;20020;-74
2022/06/01 04:24:35;;;;;;;10.57;6.25;;;10.00;99.90;;;;;;5092985;28;20101;-74
2022/06/01 04:27:01;;;;;;;31.60;7.60;;;10.00;99.90;;;;;;5093181;28;20443;-74
2022/06/01 04:29:27;;;;;;;11.98;7.32;;;10.20;99.90;;;;;;5090708;28;20417;-74
2022/06/01 04:32:02;;;;;;;15.55;6.55;;;10.40;99.90;;;;;;5079499;28;20059;-74
2022/06/01 04:34:28;;;;;;;19.75;7.15;;;10.30;99.90;;;;;;5074668;28;20032;-74
2022/06/01 04:36:55;;;;;;;17.05;7.25;;;10.60;99.90;;;;;;5093341;28;20028;-74
2022/06/01 04:39:22;;;;;;;15.48;7.43;;;10.80;99.90;;;;;;5092788;28;20028;-74
2022/06/01 04:41:48;;;;;;;13.95;8.00;;;11.10;99.90;;;;;;5092726;28;20535;-74
2022/06/01 04:44:15;;;;;;;17.52;8.20;;;11.00;99.90;;;;;;5092751;28;20031;-74
2022/06/01 04:46:41;;;;;;;14.00;7.47;;;11.10;99.90;;;;;;5092565;28;20112;-74
2022/06/01 04:49:07;;;;;;;16.40;6.90;;;11.20;99.90;;;;;;5086743;28;20028;-74
2022/06/01 04:51:36;;;;;;;17.63;7.90;;;11.50;99.90;;;;;;5085915;28;20157;-74
2022/06/01 04:54:03;;;;;;;22.48;8.82;;;11.20;99.90;;;;;;5092643;28;20495;-74
2022/06/01 04:56:29;;;;;;;17.92;7.93;;;11.20;99.90;;;;;;5092847;28;20537;-75
2022/06/01 04:58:55;;;;;;;20.20;7.40;;;11.20;99.90;;;;;;5092415;28;20024;-75
2022/06/01 05:01:21;;;;;;;18.55;8.02;;;11.20;99.90;;;;;;5092692;28;20027;-75
2022/06/01 05:03:47;;;;;;;17.10;7.75;;;11.20;99.90;;;;;;5091825;28;20391;-74
2022/06/01 05:06:12;;;;;;;16.50;7.75;;;11.30;99.90;;;;;;5092998;28;20040;-74
2022/06/01 05:08:38;;;;;;;13.23;8.40;;;11.30;99.90;;;;;;5091015;28;20036;-74
2022/06/01 05:11:04;;;;;;;16.55;7.93;;;11.40;99.90;;;;;;5092515;28;20070;-74
2022/06/01 05:13:30;;;;;;;19.17;8.10;;;11.30;99.90;;;;;;5092429;28;20028;-74
2022/06/01 05:15:59;;;;;;;13.18;7.93;;;11.50;99.90;;;;;;5092368;28;20413;-74
2022/06/01 05:18:26;;;;;;;15.35;7.78;;;11.50;99.90;;;;;;5091978;28;20039;-74
2022/06/01 05:20:55;;;;;;;20.38;8.70;;;11.70;99.90;;;;;;5091214;28;20051;-74
2022/06/01 05:23:21;;;;;;;21.70;8.82;;;11.90;99.90;;;;;;5092491;28;20480;-75
2022/06/01 05:25:49;;;;;;;21.83;9.13;;;11.60;99.90;;;;;;5095277;28;20048;-74
2022/06/01 05:28:25;;;;;;;21.40;9.38;;;11.60;99.90;;;;;;5096348;28;20027;-74
2022/06/01 05:30:58;;;;;;;19.58;8.95;;;11.50;99.90;;;;;;5083909;28;20112;-74
2022/06/01 05:33:25;;;;;;;18.48;9.95;;;11.60;99.90;;;;;;5088501;28;20437;-74
2022/06/01 05:35:50;;;;;;;17.80;8.77;;;11.40;99.90;;;;;;5098399;28;20070;-74
2022/06/01 05:38:16;;;;;;;16.73;7.65;;;11.40;99.90;;;;;;5081953;28;20423;-74
2022/06/01 05:40:43;;;;;;;19.25;8.15;;;11.40;99.90;;;;;;5091605;28;20420;-74
2022/06/01 05:43:11;;;;;;;24.02;8.27;;;11.40;99.90;;;;;;5093743;28;20100;-74
2022/06/01 05:45:38;;;;;;;16.38;8.40;;;11.40;99.90;;;;;;5087160;28;20455;-74
2022/06/01 05:48:05;;;;;;;16.88;7.93;;;11.60;99.90;;;;;;5082277;28;20016;-74
2022/06/01 05:50:30;;;;;;;15.38;7.40;;;11.50;99.90;;;;;;5087080;28;20037;-73
2022/06/01 05:52:56;;;;;;;16.42;7.75;;;11.60;99.90;;;;;;5096861;28;20031;-74
2022/06/01 05:55:22;;;;;;;14.32;7.18;;;11.60;99.90;;;;;;5082798;28;20127;-74
2022/06/01 05:57:47;;;;;;;16.27;8.30;;;11.90;99.90;;;;;;5093921;28;20057;-73
2022/06/01 06:00:16;;;;;;;18.23;8.43;;;11.70;99.90;;;;;;5089030;28;20035;-74
2022/06/01 06:02:42;;;;;;;18.95;8.65;;;11.60;99.90;;;;;;5075646;28;20048;-74
2022/06/01 06:07:56;;;;;;;18.52;8.25;;;11.60;99.90;;;;;;5078940;28;20036;-74
2022/06/01 06:10:22;;;;;;;16.08;7.78;;;11.80;99.90;;;;;;5093250;28;20024;-74
2022/06/01 06:12:48;;;;;;;19.25;8.38;;;11.90;99.90;;;;;;5079034;28;20040;-74
2022/06/01 06:15:14;;;;;;;21.83;9.00;;;12.00;99.90;;;;;;5083242;28;20021;-74
2022/06/01 06:17:40;;;;;;;19.75;9.15;;;12.10;99.90;;;;;;5078375;28;20046;-74
2022/06/01 06:20:07;;;;;;;17.52;9.25;;;12.20;99.90;;;;;;5099493;28;20019;-73
2022/06/01 06:22:32;;;;;;;20.60;9.60;;;12.30;99.90;;;;;;5086863;28;20024;-74
2022/06/01 06:24:58;;;;;;;20.85;8.80;;;12.40;99.90;;;;;;5075636;28;20036;-74
2022/06/01 06:27:26;;;;;;;19.02;9.52;;;12.50;99.90;;;;;;5081498;28;20042;-74
2022/06/01 06:29:55;;;;;;;16.83;8.70;;;12.40;99.90;;;;;;5080194;28;20063;-74
2022/06/01 06:32:22;;;;;;;17.75;8.18;;;12.60;99.90;;;;;;5110577;28;20468;-75
2022/06/01 06:34:48;;;;;;;17.13;8.73;;;12.80;99.90;;;;;;5103910;28;20337;-74
2022/06/01 06:37:14;;;;;;;17.02;8.23;;;12.90;99.90;;;;;;5097501;28;20024;-74
2022/06/01 06:39:40;;;;;;;19.77;9.75;;;12.80;99.90;;;;;;5096780;28;20101;-75
2022/06/01 06:42:06;;;;;;;19.30;8.93;;;13.10;99.90;;;;;;5111879;28;20020;-74
2022/06/01 06:44:33;;;;;;;22.00;9.65;;;13.20;99.90;;;;;;5109000;28;20527;-74
2022/06/01 06:46:59;;;;;;;15.32;8.30;;;13.30;99.90;;;;;;5096500;28;20388;-74
2022/06/01 06:49:25;;;;;;;17.55;8.45;;;13.30;99.90;;;;;;5090314;28;20024;-76
2022/06/01 06:51:51;;;;;;;16.58;8.75;;;13.20;99.90;;;;;;5095645;28;20024;-74
2022/06/01 06:54:18;;;;;;;16.45;8.15;;;13.30;99.90;;;;;;5110643;28;20360;-74
2022/06/01 06:56:44;;;;;;;11.45;7.85;;;13.50;99.90;;;;;;5106961;28;20028;-75
2022/06/01 06:59:12;;;;;;;17.77;8.65;;;13.70;99.90;;;;;;5099559;28;20028;-74
2022/06/01 07:01:38;;;;;;;14.07;7.85;;;13.90;99.90;;;;;;5097154;28;20020;-75
2022/06/01 07:04:04;;;;;;;13.65;7.85;;;14.20;99.90;;;;;;5097554;28;20430;-74
2022/06/01 07:06:30;;;;;;;17.52;8.90;;;14.00;99.90;;;;;;5109520;28;20097;-74
2022/06/01 07:08:57;;;;;;;19.67;8.27;;;13.90;99.90;;;;;;5103546;28;20162;-74
2022/06/01 07:11:25;;;;;;;14.20;8.27;;;13.90;99.90;;;;;;5098596;28;20111;-74
2022/06/01 07:13:51;;;;;;;13.10;8.00;;;13.90;99.90;;;;;;5097698;28;20056;-74
2022/06/01 07:16:19;;;;;;;25.33;10.88;;;14.20;99.90;;;;;;5111398;28;20038;-74
2022/06/01 07:18:48;;;;;;;22.58;11.25;;;13.80;99.90;;;;;;5108316;28;20110;-74
2022/06/01 07:21:16;;;;;;;25.33;12.90;;;14.10;99.90;;;;;;5100246;28;20056;-75
2022/06/01 07:23:42;;;;;;;24.70;13.25;;;14.50;99.90;;;;;;5098608;28;20091;-78
2022/06/01 07:26:22;;;;;;;21.65;11.15;;;14.60;99.90;;;;;;5099234;28;20106;-74
2022/06/01 07:28:48;;;;;;;18.50;11.13;;;14.60;99.90;;;;;;5110253;28;20032;-75
2022/06/01 07:31:15;;;;;;;22.13;12.07;;;14.60;99.90;;;;;;5087652;28;20085;-75
2022/06/01 07:33:41;;;;;;;22.00;11.15;;;14.60;99.90;;;;;;5085554;28;20029;-75
2022/06/01 07:36:09;;;;;;;19.55;10.45;;;15.10;99.90;;;;;;5076923;28;20028;-75
2022/06/01 07:44:24;;;;;;;17.13;8.35;;;14.90;99.90;;;;;;5081675;28;20024;-75
2022/06/01 07:46:50;;;;;;;15.98;7.80;;;14.80;99.90;;;;;;5076625;28;20036;-75
2022/06/01 07:49:17;;;;;;;16.10;9.25;;;15.00;99.90;;;;;;5080506;28;20027;-75
2022/06/01 07:51:43;;;;;;;14.45;7.90;;;15.20;99.90;;;;;;5076907;28;20032;-75
2022/06/01 07:54:09;;;;;;;16.50;9.25;;;15.50;99.90;;;;;;5097333;28;20107;-75
2022/06/01 07:56:36;;;;;;;15.85;9.07;;;16.00;99.90;;;;;;5083341;28;20020;-75
2022/06/01 07:59:03;;;;;;;18.33;8.40;;;16.40;99.90;;;;;;5075056;28;20377;-75
2022/06/01 08:01:29;;;;;;;12.75;8.57;;;16.20;99.90;;;;;;5078757;28;20021;-75
2022/06/01 08:03:57;;;;;;;12.98;8.50;;;15.90;99.90;;;;;;5083543;28;20028;-75
2022/06/01 08:06:24;;;;;;;13.15;6.85;;;15.90;99.90;;;;;;5085079;28;20032;-75
2022/06/01 08:08:51;;;;;;;13.05;6.55;;;15.70;99.90;;;;;;5092886;28;20021;-75
2022/06/01 08:11:17;;;;;;;11.20;5.85;;;15.70;99.90;;;;;;5081911;28;20028;-75
2022/06/01 08:13:43;;;;;;;8.88;5.47;;;15.80;99.90;;;;;;5077946;28;20037;-76
2022/06/01 08:16:09;;;;;;;9.95;5.72;;;15.60;99.90;;;;;;5082118;28;20022;-76
2022/06/01 08:18:35;;;;;;;13.38;7.43;;;15.40;99.90;;;;;;5088096;28;20123;-76
2022/06/01 08:21:02;;;;;;;10.45;7.47;;;15.80;99.90;;;;;;5086777;28;20025;-76
2022/06/01 08:23:31;;;;;;;13.23;7.07;;;16.00;99.90;;;;;;5079890;28;20029;-77
2022/06/01 08:25:57;;;;;;;10.85;6.25;;;16.20;99.90;;;;;;5080091;28;20477;-76
2022/06/01 08:28:24;;;;;;;11.57;7.50;;;16.00;99.90;;;;;;5074793;28;20396;-77
2022/06/01 08:30:50;;;;;;;15.85;8.48;;;15.90;99.90;;;;;;5092459;28;20028;-77
2022/06/01 08:33:16;;;;;;;11.20;8.32;;;16.00;99.90;;;;;;5102469;28;20468;-76
2022/06/01 08:35:45;;;;;;;15.40;8.35;;;16.10;99.90;;;;;;5100300;28;20032;-77
2022/06/01 08:38:12;;;;;;;19.50;10.32;;;16.10;99.90;;;;;;5097773;28;20027;-77
2022/06/01 08:41:01;;;;;;;12.93;9.00;;;16.40;99.90;;;;;;5100548;28;20475;-77
2022/06/01 08:43:41;;;;;;;15.25;10.48;;;16.30;99.90;;;;;;5105734;28;20126;-77
2022/06/01 08:46:09;;;;;;;13.65;8.90;;;16.40;99.90;;;;;;5091712;28;20031;-77
2022/06/01 08:48:43;;;;;;;16.15;10.27;;;16.20;99.90;;;;;;5101044;28;20069;-77
2022/06/01 08:51:10;;;;;;;15.73;10.05;;;16.00;99.90;;;;;;5088401;28;20028;-77
2022/06/01 08:53:37;;;;;;;18.40;11.18;;;15.90;99.90;;;;;;5105323;28;20020;-77
2022/06/01 08:56:10;;;;;;;18.95;10.82;;;15.90;99.90;;;;;;5085187;28;20024;-76
2022/06/01 08:59:06;;;;;;;19.40;11.88;;;16.10;99.90;;;;;;5100670;28;20039;-74
2022/06/01 09:01:42;;;;;;;18.58;12.23;;;15.80;99.90;;;;;;5086902;28;20020;-75
2022/06/01 09:04:28;;;;;;;15.25;9.02;;;16.40;99.90;;;;;;5085270;28;20094;-73
2022/06/01 09:07:30;;;;;;;14.35;7.93;;;16.80;99.90;;;;;;5087606;28;20048;-75
2022/06/01 09:10:19;;;;;;;20.63;8.07;;;17.30;99.90;;;;;;5077460;28;20121;-75
2022/06/01 09:12:45;;;;;;;11.30;5.80;;;17.50;99.90;;;;;;5058894;28;20032;-75
2022/06/01 09:15:23;;;;;;;13.55;6.90;;;17.40;99.90;;;;;;5097879;28;20040;-75
2022/06/01 09:17:49;;;;;;;10.05;7.50;;;16.90;99.90;;;;;;5096041;28;20107;-75
2022/06/01 09:23:02;;;;;;;12.18;8.63;;;16.10;99.90;;;;;;5077867;28;20024;-75
2022/06/01 09:25:32;;;;;;;17.42;9.70;;;16.00;99.90;;;;;;5077939;28;20050;-75
2022/06/01 09:28:18;;;;;;;12.77;9.48;;;16.00;99.90;;;;;;5102274;28;20480;-75
2022/06/01 09:30:49;;;;;;;22.63;10.00;;;16.10;99.90;;;;;;5097818;28;20036;-75
2022/06/01 09:33:35;;;;;;;13.98;9.07;;;16.00;99.90;;;;;;5106230;28;20123;-75
2022/06/01 09:36:07;;;;;;;12.68;7.13;;;16.30;99.90;;;;;;5106192;28;20019;-74
2022/06/01 09:38:49;;;;;;;13.50;7.88;;;16.60;99.90;;;;;;5097922;28;20032;-75
2022/06/01 09:41:24;;;;;;;13.60;6.68;;;16.80;99.90;;;;;;5108091;28;20038;-74
2022/06/01 09:44:05;;;;;;;9.60;6.35;;;17.00;99.90;;;;;;5106992;28;20405;-74
2022/06/01 09:46:40;;;;;;;11.43;7.17;;;16.10;99.90;;;;;;5106836;28;20048;-75
2022/06/01 09:49:21;;;;;;;12.23;6.05;;;16.30;99.90;;;;;;5098625;28;20077;-74
2022/06/01 09:51:51;;;;;;;7.43;4.15;;;16.50;99.90;;;;;;5097839;28;20078;-74
2022/06/01 09:54:23;;;;;;;7.43;5.10;;;17.10;99.90;;;;;;5111746;28;20039;-74
2022/06/01 09:56:49;;;;;;;7.85;4.63;;;17.10;99.90;;;;;;5107776;28;20016;-75
2022/06/01 10:08:01;;;;;;;10.18;3.08;;;17.20;99.90;;;;;;5082759;28;20462;-74
2022/06/01 10:10:27;;;;;;;8.20;3.25;;;17.30;99.90;;;;;;5093531;28;20456;-74
2022/06/01 10:12:56;;;;;;;6.45;3.20;;;17.20;99.90;;;;;;5095648;28;20071;-74
2022/06/01 10:15:27;;;;;;;4.30;3.00;;;17.40;99.90;;;;;;5093056;28;20024;-74
2022/06/01 10:17:58;;;;;;;5.97;2.90;;;17.00;99.90;;;;;;5095115;28;20107;-73
2022/06/01 10:20:32;;;;;;;4.90;3.13;;;16.90;99.90;;;;;;5094545;28;20032;-74
2022/06/01 10:23:08;;;;;;;6.93;3.05;;;16.60;99.90;;;;;;5094998;28;20107;-73
2022/06/01 10:26:01;;;;;;;4.20;2.65;;;16.70;99.90;;;;;;5093512;28;20056;-73
2022/06/01 10:28:41;;;;;;;5.65;2.50;;;17.20;99.90;;;;;;5076282;28;20394;-74
2022/06/01 10:31:22;;;;;;;2.85;1.75;;;17.70;99.90;;;;;;5074344;28;20381;-74
2022/06/01 10:34:09;;;;;;;3.05;1.67;;;17.80;99.00;;;;;;5074789;28;20112;-73
2022/06/01 10:36:40;;;;;;;6.50;2.50;;;18.00;98.60;;;;;;5072929;28;20537;-74
2022/06/01 10:39:19;;;;;;;3.22;2.22;;;18.30;97.00;;;;;;5083524;28;20086;-73
2022/06/01 10:42:04;;;;;;;4.07;2.08;;;17.40;97.30;;;;;;5076290;28;20025;-73
2022/06/01 10:44:41;;;;;;;3.00;2.00;;;17.70;97.60;;;;;;5074656;28;20464;-74
2022/06/01 10:47:40;;;;;;;3.13;2.05;;;17.70;98.30;;;;;;5074414;28;20036;-74
2022/06/01 10:50:18;;;;;;;2.40;2.00;;;17.50;98.50;;;;;;5074129;28;20046;-74
2022/06/01 10:52:51;;;;;;;5.75;1.70;;;17.80;99.30;;;;;;5074305;28;20361;-73
2022/06/01 10:55:27;;;;;;;2.20;1.40;;;17.50;99.10;;;;;;5074241;28;20025;-74
2022/06/01 10:57:57;;;;;;;5.05;1.80;;;17.70;97.10;;;;;;5074206;28;20032;-74
2022/06/01 11:00:29;;;;;;;1.50;1.33;;;18.20;95.70;;;;;;5073961;28;20025;-74
2022/06/01 11:03:08;;;;;;;4.00;2.03;;;18.10;97.20;;;;;;5074228;28;20082;-73
2022/06/01 11:06:05;;;;;;;7.43;1.90;;;17.50;99.90;;;;;;5074286;28;20036;-74
2022/06/01 11:08:46;;;;;;;2.80;1.67;;;17.20;99.90;;;;;;5061111;28;20102;-74
2022/06/01 11:11:28;;;;;;;4.53;1.60;;;17.20;99.90;;;;;;5073855;28;20476;-73
2022/06/01 11:14:21;;;;;;;3.55;1.35;;;17.00;99.90;;;;;;5074050;28;20070;-74
2022/06/01 11:16:58;;;;;;;1.38;1.10;;;17.20;99.90;;;;;;5072619;28;20032;-74
2022/06/01 11:19:39;;;;;;;6.00;1.35;;;17.50;99.90;;;;;;5075641;28;20043;-73
2022/06/01 11:22:14;;;;;;;3.05;2.10;;;17.40;99.90;;;;;;5072752;28;20033;-73
2022/06/01 11:25:14;;;;;;;6.63;3.03;;;17.10;99.90;;;;;;5073879;28;20366;-73
2022/06/01 11:28:12;;;;;;;6.55;2.00;;;17.20;99.90;;;;;;5060368;28;20127;-73
2022/06/01 11:30:46;;;;;;;6.70;3.00;;;17.50;99.90;;;;;;5073097;28;20034;-74
2022/06/01 11:33:27;;;;;;;3.05;1.92;;;17.70;99.80;;;;;;5091270;28;20031;-73
2022/06/01 11:36:22;;;;;;;2.45;2.20;;;17.70;98.60;;;;;;5104483;28;20047;-73
2022/06/01 11:38:55;;;;;;;3.25;2.33;;;17.30;98.80;;;;;;5083178;28;20036;-74
2022/06/01 11:41:31;;;;;;;5.97;2.38;;;17.20;98.90;;;;;;5091590;28;20472;-73
2022/06/01 11:44:09;;;;;;;6.22;2.65;;;17.30;99.40;;;;;;5058932;28;20039;-74
2022/06/01 11:46:50;;;;;;;6.18;3.13;;;17.30;99.90;;;;;;5093425;28;20150;-74
2022/06/01 11:49:39;;;;;;;3.47;3.08;;;17.40;99.90;;;;;;5086679;28;20480;-74
2022/06/01 11:52:33;;;;;;;9.45;3.30;;;17.20;99.90;;;;;;5092952;28;20085;-73
2022/06/01 11:55:21;;;;;;;4.30;3.03;;;17.10;99.90;;;;;;5092753;28;20032;-73
2022/06/01 11:57:51;;;;;;;11.70;3.90;;;16.60;99.90;;;;;;5093594;28;20024;-73
2022/06/01 12:00:30;;;;;;;3.78;3.15;;;16.80;99.90;;;;;;5093367;28;20020;-73
2022/06/01 12:03:16;;;;;;;8.13;2.35;;;17.30;99.90;;;;;;5093038;28;20084;-73
2022/06/01 12:05:58;;;;;;;4.50;3.13;;;17.40;99.90;;;;;;5090948;28;20506;-73
2022/06/01 12:08:31;;;;;;;3.20;2.63;;;18.10;99.90;;;;;;5092077;28;20040;-73
2022/06/01 12:11:06;;;;;;;5.00;3.00;;;18.20;99.90;;;;;;5093287;28;20012;-73
2022/06/01 12:13:51;;;;;;;6.20;3.55;;;17.70;99.90;;;;;;5093200;28;20124;-74
2022/06/01 12:16:22;;;;;;;5.80;3.42;;;17.20;99.90;;;;;;5093318;28;20040;-73
2022/06/01 12:19:09;;;;;;;9.63;3.70;;;17.40;99.90;;;;;;5092591;28;20115;-73
2022/06/01 12:21:43;;;;;;;4.78;3.20;;;17.10;99.90;;;;;;5092902;28;20415;-73
2022/06/01 12:30:17;;;;;;;5.13;3.97;;;16.40;99.90;;;;;;5087320;28;20029;-73
2022/06/01 12:33:03;;;;;;;6.88;3.72;;;16.90;99.90;;;;;;5085944;28;20024;-73
2022/06/01 12:35:47;;;;;;;6.93;3.65;;;17.30;99.90;;;;;;5092736;28;20035;-73
2022/06/01 12:38:47;;;;;;;10.95;3.65;;;17.40;99.90;;;;;;5092642;28;20040;-73
2022/06/01 12:41:19;;;;;;;3.95;3.20;;;17.30;99.90;;;;;;5071238;28;20128;-73
2022/06/01 12:43:55;;;;;;;4.95;3.28;;;17.00;99.90;;;;;;5078987;28;20357;-73
2022/06/01 12:46:30;;;;;;;7.57;4.13;;;17.00;99.90;;;;;;5091313;28;20399;-73
2022/06/01 12:49:21;;;;;;;8.25;3.95;;;16.90;99.90;;;;;;5088839;28;20029;-73
2022/06/01 12:51:46;;;;;;;7.65;3.55;;;16.90;99.90;;;;;;5089143;28;20341;-73
2022/06/01 12:54:24;;;;;;;5.95;3.47;;;16.80;99.90;;;;;;5092795;28;20093;-73
2022/06/01 12:56:50;;;;;;;7.28;3.53;;;16.90;99.90;;;;;;5089016;28;20032;-73
2022/06/01 12:59:16;;;;;;;8.02;3.63;;;17.30;99.90;;;;;;5084102;28;20025;-74
2022/06/01 13:01:41;;;;;;;4.05;3.00;;;18.10;99.90;;;;;;5075663;28;20047;-73
2022/06/01 13:04:07;;;;;;;5.80;2.75;;;18.70;99.90;;;;;;5076669;28;20571;-73
2022/06/01 13:06:39;;;;;;;4.68;2.92;;;19.40;99.90;;;;;;5085827;28;20038;-73
2022/06/01 13:09:10;;;;;;;7.68;2.67;;;19.60;98.30;;;;;;5087247;28;20024;-73
2022/06/01 13:11:38;;;;;;;4.35;3.20;;;20.10;96.80;;;;;;5080612;28;20542;-74
2022/06/01 13:14:09;;;;;;;6.25;3.03;;;19.00;98.10;;;;;;5081515;28;20020;-73
2022/06/01 13:16:39;;;;;;;4.30;2.97;;;18.10;99.90;;;;;;5079194;28;20108;-73
2022/06/01 13:19:24;;;;;;;4.38;2.90;;;17.50;99.90;;;;;;5081980;28;20484;-73
2022/06/01 13:22:15;;;;;;;6.13;2.47;;;17.30;99.90;;;;;;5082934;28;20132;-73
2022/06/01 13:24:47;;;;;;;3.17;2.47;;;17.70;99.90;;;;;;5073546;28;20024;-73
2022/06/01 13:27:13;;;;;;;8.02;2.90;;;18.20;99.90;;;;;;5081739;28;20052;-73
2022/06/01 13:29:48;;;;;;;3.88;2.25;;;18.00;99.90;;;;;;5072262;28;20017;-73
2022/06/01 13:32:17;;;;;;;5.00;1.90;;;18.80;99.90;;;;;;5084135;28;20028;-73
2022/06/01 13:34:51;;;;;;;4.20;1.70;;;19.20;97.50;;;;;;5102312;28;20020;-73